Equality, Illinois
Current Conditions -  °F | °C
As of 5:15 AM on Monday 22 Dec 2014 (Local Time) from KHSB Reporting Station
Overcast Overcast  
Wind Chill: 33°   Ceiling: 9000
Heat Index: 38°   Visibility: 10mi
Dew Point: 32°   Wind: 7mph
Humidity: 79%   Direction: 100°E
Pressure: 29.89"   Gusts: NA
Location:  37.73°N, 88.34°W
Report Text: KHSB 221115Z AUTO 10006KT 10SM SCT016 OVC090 04/00 A2989 RMK AO2 T00360002
Loading
Personal Weather Stations






























Interactive Weather Map New forecast layout! Learn more

10-Day Weather Forecast

Advertisements
Track Severe Weather on mobile